Time;durP1;ratioP1;P1;durP2;ratioP2;P2;SDS_P1;SDS_P2;PMS_P1;PMS_P2;Temp;Humidity;BMP_temperature;BMP_pressure;BME280_temperature;BME280_humidity;BME280_pressure;Samples;Min_cycle;Max_cycle;Signal;HPM_P1;HPM_P2
2021/06/18 00:00:16;;;;;;;6.55;5.95;;;;;;;26.86;38.30;101054.16;698201;28;46643;-62
2021/06/18 00:00:38;;;;;;;7.10;6.50;;;;;;;26.84;38.76;101043.34;697413;28;92188;-62
2021/06/18 00:00:59;;;;;;;6.63;6.03;;;;;;;26.84;38.91;101050.84;698205;28;46383;-62
2021/06/18 00:01:21;;;;;;;7.07;6.47;;;;;;;26.82;38.86;101045.56;700606;28;1490;-62
2021/06/18 00:01:43;;;;;;;7.05;6.40;;;;;;;26.82;38.63;101042.81;700850;28;43208;-62
2021/06/18 00:02:04;;;;;;;7.45;6.70;;;;;;;26.81;38.47;101045.84;701409;28;45529;-62
2021/06/18 00:02:25;;;;;;;7.30;6.60;;;;;;;26.82;38.76;101047.50;701830;28;20899;-62
2021/06/18 00:02:48;;;;;;;6.78;6.18;;;;;;;26.81;39.08;101041.13;702396;28;22373;-62
2021/06/18 00:03:11;;;;;;;6.95;6.35;;;;;;;26.81;38.94;101041.13;700140;28;65624;-62
2021/06/18 00:03:33;;;;;;;9.25;6.57;;;;;;;26.79;38.59;101044.19;699854;28;69521;-62
2021/06/18 00:03:54;;;;;;;7.07;6.10;;;;;;;26.79;39.11;101043.38;697316;28;44166;-60
2021/06/18 00:04:15;;;;;;;6.90;6.30;;;;;;;26.76;39.05;101041.16;698850;28;17999;-62
2021/06/18 00:04:36;;;;;;;7.10;6.53;;;;;;;26.76;38.66;101047.50;698616;28;44389;-62
2021/06/18 00:04:58;;;;;;;7.40;6.70;;;;;;;26.74;38.91;101049.75;699463;28;22431;-62
2021/06/18 00:05:20;;;;;;;6.97;6.38;;;;;;;26.74;38.97;101044.19;698951;28;47505;-62
2021/06/18 00:05:41;;;;;;;7.82;6.55;;;;;;;26.73;38.68;101038.94;699281;28;22390;-62
2021/06/18 00:06:02;;;;;;;7.25;6.53;;;;;;;26.72;38.88;101046.41;699714;28;7550;-62
2021/06/18 00:06:24;;;;;;;7.07;6.47;;;;;;;26.71;39.11;101047.53;700157;28;838;-62
2021/06/18 00:06:45;;;;;;;7.33;6.73;;;;;;;26.72;39.31;101045.56;697269;28;46371;-62
2021/06/18 00:07:06;;;;;;;7.40;6.80;;;;;;;26.72;39.31;101040.03;697471;28;44649;-61
2021/06/18 00:07:27;;;;;;;7.00;6.32;;;;;;;26.70;38.95;101039.50;697601;28;46290;-62
2021/06/18 00:07:50;;;;;;;7.22;6.13;;;;;;;26.69;39.39;101037.81;699775;28;23478;-62
2021/06/18 00:08:11;;;;;;;7.20;6.50;;;;;;;26.70;39.32;101042.25;698417;28;54830;-62
2021/06/18 00:08:32;;;;;;;7.13;6.40;;;;;;;26.68;39.04;101037.00;699656;28;15784;-61
2021/06/18 00:08:54;;;;;;;7.40;6.70;;;;;;;26.67;38.97;101029.78;700199;28;905;-62
2021/06/18 00:09:16;;;;;;;7.18;6.57;;;;;;;26.67;39.55;101035.31;699265;28;22374;-62
2021/06/18 00:09:37;;;;;;;7.60;6.80;;;;;;;26.69;39.32;101041.41;698366;28;46315;-62
2021/06/18 00:09:58;;;;;;;7.43;6.70;;;;;;;26.66;38.99;101036.47;699072;28;23544;-61
2021/06/18 00:10:25;;;;;;;6.95;6.25;;;;;;;26.65;39.30;101034.78;699302;28;22507;-62
2021/06/18 00:10:47;;;;;;;7.10;6.38;;;;;;;26.65;39.15;101037.56;695434;28;130710;-61
2021/06/18 00:11:08;;;;;;;6.95;6.28;;;;;;;26.65;38.85;101040.31;698734;28;46374;-61
2021/06/18 00:11:29;;;;;;;7.22;6.53;;;;;;;26.65;39.18;101040.31;700299;28;995;-62
2021/06/18 00:11:50;;;;;;;7.05;6.45;;;;;;;26.65;39.03;101034.78;699601;28;23385;-62
2021/06/18 00:12:12;;;;;;;7.07;6.45;;;;;;;26.65;39.10;101040.31;699577;28;22406;-61
2021/06/18 00:12:35;;;;;;;7.10;6.47;;;;;;;26.67;39.30;101034.50;698364;28;37907;-62
2021/06/18 00:12:56;;;;;;;6.88;6.28;;;;;;;26.67;38.92;101032.56;698163;28;45214;-62
2021/06/18 00:13:17;;;;;;;6.65;6.15;;;;;;;26.67;38.91;101034.50;698792;28;46362;-62
2021/06/18 00:13:39;;;;;;;6.70;6.20;;;;;;;26.69;39.11;101043.34;699592;28;19307;-61
2021/06/18 00:14:00;;;;;;;7.25;6.55;;;;;;;26.68;39.43;101031.47;698484;28;46747;-62
2021/06/18 00:14:22;;;;;;;7.28;6.57;;;;;;;26.68;39.15;101041.69;700040;28;959;-62
2021/06/18 00:14:43;;;;;;;6.68;6.18;;;;;;;26.68;39.23;101038.91;699625;28;13564;-62
2021/06/18 00:15:06;;;;;;;6.72;6.22;;;;;;;26.68;39.32;101033.38;696212;28;23479;-62
2021/06/18 00:15:28;;;;;;;7.18;6.57;;;;;;;26.67;39.26;101032.56;692282;28;92274;-62
2021/06/18 00:15:50;;;;;;;7.10;6.50;;;;;;;26.67;39.33;101037.28;695846;28;44428;-62
2021/06/18 00:16:11;;;;;;;6.90;6.30;;;;;;;26.66;39.62;101035.59;696570;28;22452;-62
2021/06/18 00:16:32;;;;;;;7.07;6.38;;;;;;;26.64;39.77;101026.72;696410;28;23430;-62
2021/06/18 00:16:53;;;;;;;7.03;6.38;;;;;;;26.65;39.46;101036.69;697678;28;20345;-62
2021/06/18 00:17:15;;;;;;;6.97;6.47;;;;;;;26.63;39.46;101034.22;699865;28;15574;-62
2021/06/18 00:17:37;;;;;;;7.22;6.55;;;;;;;26.62;39.54;101038.06;701124;28;44849;-61
2021/06/18 00:17:58;;;;;;;7.13;6.53;;;;;;;26.62;39.35;101038.06;701349;28;45301;-62
2021/06/18 00:18:20;;;;;;;7.15;6.43;;;;;;;26.60;39.53;101024.50;700957;28;46341;-62
2021/06/18 00:18:42;;;;;;;7.10;6.40;;;;;;;26.59;39.67;101036.69;698426;28;46443;-61
2021/06/18 00:19:03;;;;;;;6.60;6.07;;;;;;;26.57;39.69;101033.38;698021;28;45216;-60
2021/06/18 00:19:24;;;;;;;7.05;6.53;;;;;;;26.57;39.71;101032.56;699023;28;23438;-61
2021/06/18 00:19:46;;;;;;;6.75;6.15;;;;;;;26.58;39.60;101036.97;700082;28;12752;-62
2021/06/18 00:20:10;;;;;;;7.22;6.60;;;;;;;26.56;39.39;101030.88;701890;28;37901;-62
2021/06/18 00:20:31;;;;;;;6.93;6.32;;;;;;;26.55;39.62;101021.75;699114;28;116544;-61
2021/06/18 00:20:52;;;;;;;6.75;6.18;;;;;;;26.54;39.76;101039.47;698337;28;21845;-61
2021/06/18 00:21:13;;;;;;;7.25;6.57;;;;;;;26.54;39.52;101033.09;699492;28;16100;-61
2021/06/18 00:21:35;;;;;;;7.55;6.78;;;;;;;26.54;39.62;101033.91;699307;28;22478;-61
2021/06/18 00:21:56;;;;;;;7.38;6.78;;;;;;;26.53;39.84;101035.03;698630;28;47756;-62
2021/06/18 00:22:17;;;;;;;6.90;6.30;;;;;;;26.52;39.34;101027.84;699527;28;18258;-59
2021/06/18 00:22:39;;;;;;;6.63;6.13;;;;;;;26.52;39.57;101029.75;699610;28;21406;-61
2021/06/18 00:23:01;;;;;;;7.38;6.60;;;;;;;26.53;39.57;101036.97;701249;28;46206;-61
2021/06/18 00:23:23;;;;;;;7.30;6.70;;;;;;;26.53;39.45;101025.88;700783;28;69571;-60
2021/06/18 00:23:44;;;;;;;7.00;6.50;;;;;;;26.52;39.79;101029.75;703025;28;1359;-61
2021/06/18 00:24:07;;;;;;;6.95;6.35;;;;;;;26.52;39.95;101027.00;701971;28;16137;-60
2021/06/18 00:24:29;;;;;;;7.00;6.40;;;;;;;26.52;40.05;101032.53;701545;28;46498;-62
2021/06/18 00:24:50;;;;;;;6.90;6.30;;;;;;;26.52;39.76;101030.63;702139;28;26611;-61
2021/06/18 00:25:12;;;;;;;7.00;6.30;;;;;;;26.51;39.34;101023.41;702453;28;13098;-60
2021/06/18 00:25:33;;;;;;;7.57;6.75;;;;;;;26.52;39.80;101027.84;701526;28;44760;-61
2021/06/18 00:25:54;;;;;;;9.00;6.82;;;;;;;26.51;39.69;101023.41;701944;28;22406;-61
2021/06/18 00:26:16;;;;;;;7.65;6.50;;;;;;;26.51;39.32;101028.94;702514;28;22406;-60
2021/06/18 00:26:38;;;;;;;7.40;6.70;;;;;;;26.51;39.56;101028.94;703260;28;884;-59
2021/06/18 00:26:59;;;;;;;7.50;6.72;;;;;;;26.52;39.48;101027.00;702878;28;3478;-61
2021/06/18 00:27:20;;;;;;;7.78;6.63;;;;;;;26.52;39.64;101025.06;701906;28;10132;-60
2021/06/18 00:27:41;;;;;;;7.22;6.60;;;;;;;26.51;39.65;101026.16;702514;28;23421;-61
2021/06/18 00:28:04;;;;;;;7.18;6.57;;;;;;;26.51;39.34;101023.41;701703;28;46326;-62
2021/06/18 00:28:25;;;;;;;7.32;6.72;;;;;;;26.50;39.81;101032.81;697711;28;66347;-61
2021/06/18 00:28:46;;;;;;;7.50;6.80;;;;;;;26.51;39.64;101028.13;699783;28;14728;-62
2021/06/18 00:29:07;;;;;;;7.30;6.70;;;;;;;26.50;39.92;101026.44;697930;28;19020;-60
2021/06/18 00:29:29;;;;;;;7.88;7.00;;;;;;;26.50;39.72;101023.69;698503;28;22404;-60
2021/06/18 00:29:51;;;;;;;7.45;6.75;;;;;;;26.50;39.39;101024.50;698338;28;44407;-59
2021/06/18 00:30:13;;;;;;;7.53;6.78;;;;;;;26.49;39.58;101030.31;700219;28;9779;-62
2021/06/18 00:30:34;;;;;;;7.43;6.72;;;;;;;26.49;39.54;101025.63;701897;28;36680;-59
2021/06/18 00:30:56;;;;;;;7.40;6.70;;;;;;;26.50;40.02;101021.72;700774;28;47348;-61
2021/06/18 00:31:18;;;;;;;9.02;6.75;;;;;;;26.48;39.54;101023.94;701287;28;46448;-62
2021/06/18 00:31:40;;;;;;;8.23;6.78;;;;;;;26.48;39.48;101018.41;699239;28;46403;-61
2021/06/18 00:32:01;;;;;;;8.07;6.70;;;;;;;26.48;39.58;101021.19;700912;28;22430;-61
2021/06/18 00:32:23;;;;;;;7.50;6.80;;;;;;;26.49;39.63;101017.31;701295;28;1761;-59
2021/06/18 00:32:45;;;;;;;7.47;6.68;;;;;;;26.49;39.36;101022.00;701880;28;23419;-62
2021/06/18 00:33:06;;;;;;;7.35;6.70;;;;;;;26.48;39.85;101021.19;699188;28;8583;-61
2021/06/18 00:33:30;;;;;;;7.68;6.88;;;;;;;26.49;39.70;101020.09;699854;28;1298;-62
2021/06/18 00:33:51;;;;;;;7.70;6.90;;;;;;;26.48;39.45;101014.81;698655;28;43362;-61
2021/06/18 00:34:13;;;;;;;7.25;6.55;;;;;;;26.48;39.84;101023.13;698467;28;1562;-61
2021/06/18 00:34:34;;;;;;;7.70;7.00;;;;;;;26.48;39.81;101018.41;698647;28;44714;-61
2021/06/18 00:34:55;;;;;;;7.50;6.90;;;;;;;26.49;39.74;101020.09;700455;28;23503;-60
2021/06/18 00:35:17;;;;;;;7.68;6.97;;;;;;;26.50;39.31;101020.91;703027;28;917;-62
2021/06/18 00:35:39;;;;;;;7.60;6.90;;;;;;;26.50;39.27;101018.97;702256;28;24427;-60
2021/06/18 00:36:00;;;;;;;7.25;6.65;;;;;;;26.49;39.88;101013.69;701318;28;46466;-61
2021/06/18 00:36:22;;;;;;;7.53;6.82;;;;;;;26.49;39.82;101017.31;702704;28;1214;-62
2021/06/18 00:36:43;;;;;;;7.40;6.75;;;;;;;26.48;39.37;101014.81;702580;28;22350;-61
2021/06/18 00:37:05;;;;;;;7.72;7.05;;;;;;;26.49;39.50;101019.25;702312;28;18927;-61
2021/06/18 00:37:26;;;;;;;8.60;7.43;;;;;;;26.49;39.80;101017.31;697260;28;67847;-61
2021/06/18 00:37:47;;;;;;;10.75;7.00;;;;;;;26.48;39.73;101015.66;699504;28;23427;-62
2021/06/18 00:38:08;;;;;;;8.02;6.97;;;;;;;26.48;39.89;101017.59;698402;28;46304;-62
2021/06/18 00:38:30;;;;;;;7.53;6.85;;;;;;;26.46;39.97;101019.78;698897;28;23290;-61
2021/06/18 00:38:52;;;;;;;9.20;7.55;;;;;;;26.45;39.99;101013.44;698742;28;22414;-61
2021/06/18 00:39:13;;;;;;;8.25;7.50;;;;;;;26.47;39.69;101005.66;698957;28;46318;-62
2021/06/18 00:39:34;;;;;;;7.97;7.30;;;;;;;26.46;39.68;101015.09;702158;28;14591;-61
2021/06/18 00:39:55;;;;;;;11.15;7.07;;;;;;;26.47;39.43;101013.16;701689;28;23460;-61
2021/06/18 00:40:17;;;;;;;8.40;7.15;;;;;;;26.47;39.67;101016.75;701147;28;23442;-62
2021/06/18 00:40:40;;;;;;;7.85;7.05;;;;;;;26.47;39.71;101010.38;701522;28;46157;-59
2021/06/18 00:41:01;;;;;;;7.78;7.05;;;;;;;26.46;39.51;101012.34;700683;28;69302;-62
2021/06/18 00:41:22;;;;;;;8.48;7.43;;;;;;;26.47;39.94;101013.16;702266;28;21521;-61
2021/06/18 00:41:43;;;;;;;8.18;7.47;;;;;;;26.45;39.85;101010.66;702359;28;23430;-62
2021/06/18 00:42:06;;;;;;;7.45;6.75;;;;;;;26.45;39.60;101018.97;701787;28;23455;-60
2021/06/18 00:42:27;;;;;;;8.02;7.22;;;;;;;26.44;40.04;101020.06;701388;28;35549;-62
2021/06/18 00:42:48;;;;;;;8.10;7.30;;;;;;;26.43;39.52;101010.13;701939;28;27693;-60
2021/06/18 00:43:15;;;;;;;8.15;7.45;;;;;;;26.41;40.09;101013.16;700606;28;59355;-62
2021/06/18 00:43:37;;;;;;;7.95;7.25;;;;;;;26.41;39.86;101015.94;701641;28;23534;-62
2021/06/18 00:43:58;;;;;;;7.90;7.10;;;;;;;26.43;39.83;101013.72;701242;28;3506;-61
2021/06/18 00:44:20;;;;;;;7.97;7.18;;;;;;;26.42;39.89;101014.81;702027;28;13121;-62
2021/06/18 00:44:41;;;;;;;7.38;6.78;;;;;;;26.42;39.37;101009.25;702721;28;7765;-61
2021/06/18 00:45:08;;;;;;;7.72;7.03;;;;;;;26.43;39.98;101012.88;700765;28;61220;-61
2021/06/18 00:45:30;;;;;;;8.13;7.32;;;;;;;26.44;39.59;101011.75;701437;28;46490;-62
2021/06/18 00:45:51;;;;;;;7.97;7.18;;;;;;;26.44;39.55;101014.53;700946;28;44390;-62
2021/06/18 00:46:13;;;;;;;7.75;7.05;;;;;;;26.43;39.63;101013.72;701614;28;4141;-61
2021/06/18 00:46:34;;;;;;;7.95;7.22;;;;;;;26.44;39.67;101006.22;700946;28;24409;-62
2021/06/18 00:46:55;;;;;;;7.80;7.10;;;;;;;26.44;39.93;101011.75;700316;28;42245;-62
2021/06/18 00:47:20;;;;;;;7.35;6.75;;;;;;;26.44;39.65;101006.22;699540;28;3082;-62
2021/06/18 00:47:48;;;;;;;7.80;7.10;;;;;;;26.44;39.80;101003.44;696306;28;115153;-60
2021/06/18 00:48:09;;;;;;;8.18;7.38;;;;;;;26.42;39.96;101009.25;695271;28;138790;-62
2021/06/18 00:48:32;;;;;;;8.18;7.38;;;;;;;26.41;40.01;101006.78;699579;28;21879;-62
2021/06/18 00:48:54;;;;;;;7.97;6.95;;;;;;;26.42;39.90;101013.97;695869;28;69652;-62
2021/06/18 00:49:17;;;;;;;7.63;7.03;;;;;;;26.41;40.08;101004.00;700637;28;17508;-62
2021/06/18 00:49:38;;;;;;;7.70;6.90;;;;;;;26.40;40.21;101005.13;697701;28;67684;-62
2021/06/18 00:50:00;;;;;;;8.00;7.20;;;;;;;26.39;40.06;101009.00;698130;28;23432;-61
2021/06/18 00:50:21;;;;;;;8.27;7.30;;;;;;;26.38;39.69;101012.88;698134;28;45237;-62
2021/06/18 00:50:42;;;;;;;8.20;7.25;;;;;;;26.37;40.23;101011.22;698670;28;32996;-61
2021/06/18 00:51:05;;;;;;;7.60;6.85;;;;;;;26.36;40.04;101010.38;699172;28;19058;-62
2021/06/18 00:51:26;;;;;;;7.82;7.13;;;;;;;26.35;39.90;101011.50;698492;28;67562;-61
2021/06/18 00:51:47;;;;;;;7.70;7.00;;;;;;;26.35;39.90;101016.19;702489;28;23558;-61
2021/06/18 00:52:08;;;;;;;7.68;6.97;;;;;;;26.35;40.03;101013.41;702034;28;23434;-61
2021/06/18 00:52:31;;;;;;;7.72;7.05;;;;;;;26.32;39.98;101012.06;702120;28;22424;-61
2021/06/18 00:52:53;;;;;;;8.68;7.63;;;;;;;26.32;40.07;101012.06;700657;28;69481;-62
2021/06/18 00:53:15;;;;;;;7.50;6.90;;;;;;;26.32;40.04;101014.00;701571;28;41103;-60
2021/06/18 00:53:38;;;;;;;7.50;6.80;;;;;;;26.31;40.07;101012.31;702207;28;22380;-61
2021/06/18 00:53:59;;;;;;;8.18;7.30;;;;;;;26.30;39.86;101018.97;700551;28;69308;-61
2021/06/18 00:54:28;;;;;;;7.70;7.00;;;;;;;26.28;40.26;101002.63;697554;28;46426;-62
2021/06/18 00:54:50;;;;;;;7.70;7.00;;;;;;;26.29;40.56;101009.84;694898;28;138760;-60
2021/06/18 00:55:11;;;;;;;8.05;7.35;;;;;;;26.28;40.03;101013.69;698707;28;45265;-61
2021/06/18 00:55:33;;;;;;;7.80;7.10;;;;;;;26.26;40.40;101011.22;698507;28;46358;-62
2021/06/18 00:55:55;;;;;;;7.72;7.03;;;;;;;26.27;40.50;101014.81;698348;28;36782;-62
2021/06/18 00:56:16;;;;;;;7.40;6.80;;;;;;;26.25;40.01;101014.25;700762;28;35760;-61
2021/06/18 00:56:37;;;;;;;7.32;6.70;;;;;;;26.23;40.57;101010.94;695997;28;19308;-60
2021/06/18 00:57:00;;;;;;;7.78;7.07;;;;;;;26.23;40.30;101013.72;696383;28;22347;-61
2021/06/18 00:57:21;;;;;;;7.70;7.00;;;;;;;26.24;40.05;101018.16;694660;28;70377;-62
2021/06/18 00:57:44;;;;;;;8.07;7.28;;;;;;;26.21;40.48;101013.97;694397;28;23443;-61
2021/06/18 00:58:06;;;;;;;8.27;7.45;;;;;;;26.21;40.19;101016.75;694107;28;45313;-60
2021/06/18 00:58:28;;;;;;;8.20;7.45;;;;;;;26.22;40.28;101007.34;694219;28;53971;-62
2021/06/18 00:58:49;;;;;;;8.43;7.63;;;;;;;26.22;40.56;101018.41;699765;28;10905;-61
2021/06/18 00:59:11;;;;;;;8.98;7.45;;;;;;;26.22;40.57;101015.66;699329;28;23536;-61
2021/06/18 00:59:33;;;;;;;8.00;7.28;;;;;;;26.21;40.15;101010.38;699622;28;21542;-62
2021/06/18 00:59:54;;;;;;;8.13;7.43;;;;;;;26.19;40.24;101009.81;702224;28;8987;-60
2021/06/18 01:00:16;;;;;;;8.13;7.43;;;;;;;26.19;40.76;101007.91;702428;28;23402;-59
2021/06/18 01:00:38;;;;;;;8.10;7.30;;;;;;;26.20;40.74;101017.03;701291;28;46415;-60
2021/06/18 01:00:59;;;;;;;8.13;7.25;;;;;;;26.20;40.89;101015.06;701573;28;1351;-59
2021/06/18 01:01:21;;;;;;;7.82;7.20;;;;;;;26.19;40.84;101015.34;701696;28;1069;-59
2021/06/18 01:01:42;;;;;;;7.72;7.03;;;;;;;26.19;40.61;101013.44;701354;28;14142;-59
2021/06/18 01:02:03;;;;;;;8.20;7.47;;;;;;;26.19;40.73;101016.19;700758;28;21555;-59
2021/06/18 01:02:25;;;;;;;8.55;7.75;;;;;;;26.18;40.69;101010.94;701186;28;22468;-60
2021/06/18 01:02:50;;;;;;;8.02;7.18;;;;;;;26.18;40.91;101019.25;700119;28;84875;-61
2021/06/18 01:03:11;;;;;;;7.97;7.27;;;;;;;26.18;40.50;101014.53;701466;28;46186;-59
2021/06/18 01:03:34;;;;;;;8.10;7.40;;;;;;;26.18;40.38;101013.72;702063;28;32734;-61
2021/06/18 01:03:56;;;;;;;8.32;7.63;;;;;;;26.18;40.51;101010.94;701278;28;47418;-61
2021/06/18 01:04:17;;;;;;;8.20;7.50;;;;;;;26.18;40.53;101013.72;697836;28;40218;-61
2021/06/18 01:04:40;;;;;;;7.80;7.20;;;;;;;26.16;40.41;101011.22;699587;28;16331;-61
2021/06/18 01:05:02;;;;;;;9.60;7.65;;;;;;;26.17;40.83;101007.31;699908;28;1008;-60
2021/06/18 01:05:26;;;;;;;8.20;7.30;;;;;;;26.17;40.63;101012.03;699923;28;1491;-61
2021/06/18 01:05:47;;;;;;;8.23;7.43;;;;;;;26.17;40.85;101009.25;697344;28;69319;-59
2021/06/18 01:06:09;;;;;;;10.77;7.60;;;;;;;26.16;40.68;101016.75;697311;28;13418;-61
2021/06/18 01:06:33;;;;;;;8.25;7.35;;;;;;;26.15;40.58;101009.53;699098;28;24880;-61
2021/06/18 01:07:09;;;;;;;9.10;7.00;;;;;;;26.14;40.61;101007.88;696404;28;98617;-59
2021/06/18 01:07:32;;;;;;;8.55;7.68;;;;;;;26.13;40.79;101014.53;695338;28;125783;-59
2021/06/18 01:08:13;;;;;;;7.57;6.88;;;;;;;26.13;41.18;101013.69;698349;28;58514;-59
2021/06/18 01:08:41;;;;;;;7.53;6.93;;;;;;;26.12;41.20;101014.81;698276;28;133456;-61
2021/06/18 01:09:06;;;;;;;7.78;7.18;;;;;;;26.13;40.62;101010.91;697219;28;161862;-58
2021/06/18 01:09:31;;;;;;;8.50;7.60;;;;;;;26.11;41.25;101013.97;697168;28;137962;-59
2021/06/18 01:10:03;;;;;;;8.98;7.50;;;;;;;26.10;40.72;101015.06;698744;28;115926;-62
2021/06/18 01:10:35;;;;;;;7.55;6.90;;;;;;;26.07;41.04;101008.16;692491;28;157374;-61
2021/06/18 01:11:02;;;;;;;7.97;7.28;;;;;;;26.10;40.73;101011.47;694433;28;138139;-59
2021/06/18 01:11:32;;;;;;;7.97;7.28;;;;;;;26.10;41.13;101006.78;695511;28;130969;-61
2021/06/18 01:11:59;;;;;;;8.15;7.50;;;;;;;26.09;40.95;101018.94;695612;28;137896;-62
2021/06/18 01:12:24;;;;;;;7.95;7.25;;;;;;;26.08;40.77;101018.13;698224;28;61862;-61
2021/06/18 01:12:52;;;;;;;8.35;7.55;;;;;;;26.09;41.27;101016.19;699247;28;15012;-60
2021/06/18 01:13:24;;;;;;;8.07;7.43;;;;;;;26.08;41.28;101003.44;697743;28;65059;-60
2021/06/18 01:14:01;;;;;;;8.23;7.53;;;;;;;26.09;41.30;101010.63;696763;28;99402;-61
2021/06/18 01:14:28;;;;;;;7.80;7.10;;;;;;;26.08;40.95;101009.81;695282;28;138170;-59
2021/06/18 01:14:58;;;;;;;8.52;7.72;;;;;;;26.09;40.95;101005.09;695726;28;135972;-60
2021/06/18 01:15:24;;;;;;;8.70;7.80;;;;;;;26.08;40.67;101004.28;698009;28;60586;-61
2021/06/18 01:15:51;;;;;;;8.75;7.35;;;;;;;26.10;40.72;101006.78;696818;28;91954;-60
2021/06/18 01:16:15;;;;;;;9.07;7.60;;;;;;;26.11;40.96;101007.59;697594;28;61727;-58
2021/06/18 01:16:38;;;;;;;8.52;7.72;;;;;;;26.12;40.98;101004.56;698158;28;69302;-58
2021/06/18 01:17:03;;;;;;;7.85;7.15;;;;;;;26.14;40.81;101007.06;697052;28;52606;-59
2021/06/18 01:17:30;;;;;;;8.43;7.72;;;;;;;26.13;40.83;101005.38;694658;28;115685;-59
2021/06/18 01:17:56;;;;;;;8.40;7.55;;;;;;;26.10;40.90;101004.00;695575;28;138106;-60
2021/06/18 01:18:23;;;;;;;7.95;7.35;;;;;;;26.12;41.17;101009.28;695827;28;136244;-59
2021/06/18 01:18:49;;;;;;;7.78;7.03;;;;;;;26.09;40.91;101010.63;695394;28;137752;-60
2021/06/18 01:19:15;;;;;;;8.30;7.53;;;;;;;26.09;41.39;100999.56;696314;28;91742;-61
2021/06/18 01:19:42;;;;;;;8.07;7.35;;;;;;;26.08;41.39;101004.28;694917;28;137850;-59
2021/06/18 01:20:32;;;;;;;8.00;7.25;;;;;;;26.07;41.03;101005.38;695095;28;138985;-62
2021/06/18 01:21:15;;;;;;;8.63;7.82;;;;;;;26.07;41.25;101007.31;694878;28;157884;-61
2021/06/18 01:21:39;;;;;;;8.27;7.47;;;;;;;26.06;40.77;101008.41;700577;28;62531;-60
2021/06/18 01:22:03;;;;;;;8.20;7.47;;;;;;;26.05;41.48;101007.59;699809;28;92278;-61
2021/06/18 01:22:26;;;;;;;9.32;7.43;;;;;;;26.04;41.26;101000.41;699598;28;87960;-61
2021/06/18 01:22:49;;;;;;;8.10;7.35;;;;;;;26.03;41.58;101011.75;698440;28;90582;-60
2021/06/18 01:23:17;;;;;;;8.30;7.50;;;;;;;26.01;41.28;101009.25;698070;28;47251;-59
2021/06/18 01:23:58;;;;;;;8.88;7.80;;;;;;;25.99;41.68;101010.63;696485;28;95176;-61
2021/06/18 01:24:49;;;;;;;8.35;7.65;;;;;;;25.99;41.37;101011.47;694934;28;138703;-60
2021/06/18 01:25:13;;;;;;;9.20;7.65;;;;;;;25.97;41.58;101008.16;695118;28;135634;-59
2021/06/18 01:25:41;;;;;;;8.52;7.25;;;;;;;25.97;41.41;101007.25;700457;28;69413;-59
2021/06/18 01:26:04;;;;;;;8.55;7.72;;;;;;;25.98;41.28;101006.19;698133;28;137995;-58
2021/06/18 01:26:49;;;;;;;8.30;7.60;;;;;;;25.97;41.52;101015.56;699796;28;70565;-61
2021/06/18 01:27:29;;;;;;;8.55;7.80;;;;;;;25.95;41.72;101012.25;698214;28;135155;-60
2021/06/18 01:27:58;;;;;;;8.15;7.45;;;;;;;25.95;41.68;101012.25;700808;28;62315;-61
2021/06/18 01:28:37;;;;;;;7.93;7.22;;;;;;;25.95;41.52;101015.03;698174;28;135775;-61
2021/06/18 01:28:59;;;;;;;8.27;7.30;;;;;;;25.94;41.59;101010.59;698276;28;138426;-59
2021/06/18 01:29:21;;;;;;;8.63;7.80;;;;;;;25.94;41.33;101014.19;701607;28;23635;-61
2021/06/18 01:29:44;;;;;;;9.05;8.15;;;;;;;25.94;41.55;101014.19;698989;28;69848;-59
2021/06/18 01:30:09;;;;;;;8.20;7.40;;;;;;;25.94;41.52;101022.50;700242;28;61616;-61
2021/06/18 01:30:32;;;;;;;8.00;7.30;;;;;;;25.93;41.69;101020.00;699778;28;92228;-59
2021/06/18 01:30:54;;;;;;;8.18;7.47;;;;;;;25.91;41.66;101025.81;698874;28;88517;-60
2021/06/18 01:31:17;;;;;;;8.32;7.63;;;;;;;25.88;41.87;101021.66;701787;28;36716;-60
2021/06/18 01:31:41;;;;;;;8.15;7.35;;;;;;;25.88;41.50;101018.06;700999;28;53767;-60
2021/06/18 01:32:05;;;;;;;8.40;7.50;;;;;;;25.86;41.98;101015.56;699856;28;87907;-59
2021/06/18 01:32:35;;;;;;;9.13;8.00;;;;;;;25.85;41.77;101011.13;699186;28;93130;-61
2021/06/18 01:32:59;;;;;;;8.32;7.57;;;;;;;25.86;41.76;101015.56;698221;28;138849;-60
2021/06/18 01:33:22;;;;;;;8.70;7.72;;;;;;;25.86;41.64;101014.72;700730;28;62994;-59
2021/06/18 01:33:47;;;;;;;8.13;7.40;;;;;;;25.85;41.80;101018.59;696654;28;92062;-61
2021/06/18 01:34:13;;;;;;;8.27;7.22;;;;;;;25.84;41.68;101016.94;694868;28;138120;-60
2021/06/18 01:34:35;;;;;;;10.55;7.57;;;;;;;25.83;41.61;101018.88;695885;28;115774;-60
2021/06/18 01:34:56;;;;;;;8.27;7.47;;;;;;;25.81;41.50;101012.75;698202;28;46344;-60
2021/06/18 01:35:18;;;;;;;8.00;7.30;;;;;;;25.81;41.79;101023.00;699412;28;22360;-62
2021/06/18 01:35:43;;;;;;;8.27;7.50;;;;;;;25.81;42.01;101015.53;699456;28;69559;-61
2021/06/18 01:36:08;;;;;;;8.77;7.93;;;;;;;25.82;41.95;101019.16;699632;28;83613;-61
2021/06/18 01:36:31;;;;;;;8.32;7.50;;;;;;;25.80;41.73;101024.94;699513;28;92329;-61
2021/06/18 01:36:54;;;;;;;8.40;7.50;;;;;;;25.79;42.40;101012.22;700813;28;69622;-61
2021/06/18 01:37:18;;;;;;;8.23;7.53;;;;;;;25.77;42.30;101014.44;700626;28;69428;-60
2021/06/18 01:37:41;;;;;;;8.32;7.63;;;;;;;25.77;42.27;101016.34;699472;28;94342;-60
2021/06/18 01:38:06;;;;;;;8.73;7.82;;;;;;;25.77;42.35;101019.13;699079;28;69395;-60
2021/06/18 01:38:29;;;;;;;8.82;8.02;;;;;;;25.75;42.08;101011.09;699356;28;105935;-59
2021/06/18 01:38:59;;;;;;;9.13;8.32;;;;;;;25.76;41.97;101017.47;700736;28;59008;-61
2021/06/18 01:39:21;;;;;;;9.00;8.20;;;;;;;25.74;42.58;101014.97;702476;28;3040;-61
2021/06/18 01:39:45;;;;;;;9.30;8.48;;;;;;;25.74;42.31;101020.50;700656;28;45225;-59
2021/06/18 01:40:09;;;;;;;8.93;8.13;;;;;;;25.73;42.60;101016.06;699108;28;67454;-59
2021/06/18 01:40:31;;;;;;;8.38;7.68;;;;;;;25.72;42.27;101006.94;697600;28;115098;-59
2021/06/18 01:40:57;;;;;;;8.20;7.47;;;;;;;25.72;42.32;101018.00;702080;28;4004;-60
2021/06/18 01:41:22;;;;;;;8.93;8.02;;;;;;;25.71;42.34;101013.56;699725;28;92260;-59
2021/06/18 01:41:46;;;;;;;7.97;7.27;;;;;;;25.69;42.33;101015.78;699307;28;105703;-59
2021/06/18 01:42:09;;;;;;;8.73;7.90;;;;;;;25.66;42.38;101010.81;699846;28;90714;-59
2021/06/18 01:42:40;;;;;;;8.68;7.88;;;;;;;25.64;42.58;101009.41;700413;28;61164;-60
2021/06/18 01:43:04;;;;;;;8.82;7.93;;;;;;;25.63;43.01;101019.63;698432;28;132464;-59
2021/06/18 01:43:28;;;;;;;8.70;7.80;;;;;;;25.62;42.76;101012.44;700288;28;77782;-61
2021/06/18 01:43:52;;;;;;;8.65;7.85;;;;;;;25.63;42.91;101013.28;700528;28;71175;-59
2021/06/18 01:44:14;;;;;;;8.23;7.53;;;;;;;25.61;42.66;101010.78;698942;28;88583;-61
2021/06/18 01:44:36;;;;;;;8.50;7.70;;;;;;;25.61;42.54;101010.78;700365;28;45497;-61
2021/06/18 01:44:58;;;;;;;8.73;7.93;;;;;;;25.60;42.39;101024.91;701403;28;45125;-62
2021/06/18 01:45:20;;;;;;;8.38;7.68;;;;;;;25.59;42.63;101024.03;701340;28;44375;-60
2021/06/18 01:45:44;;;;;;;8.70;7.80;;;;;;;25.59;42.80;101020.44;701221;28;47734;-58
2021/06/18 01:46:06;;;;;;;11.32;8.00;;;;;;;25.60;42.65;101019.38;699681;28;91736;-60
2021/06/18 01:46:30;;;;;;;8.95;8.05;;;;;;;25.58;42.73;101019.63;701255;28;45659;-59
2021/06/18 01:46:52;;;;;;;8.35;7.65;;;;;;;25.58;42.70;101016.88;699202;28;70233;-60
2021/06/18 01:47:16;;;;;;;8.60;7.78;;;;;;;25.58;42.18;101018.78;699921;28;46401;-60
2021/06/18 01:47:38;;;;;;;11.95;8.20;;;;;;;25.57;42.86;101022.66;698326;28;113582;-57
2021/06/18 01:48:03;;;;;;;8.70;7.68;;;;;;;25.56;42.56;101018.22;701154;28;46381;-61
2021/06/18 01:48:25;;;;;;;8.50;7.70;;;;;;;25.55;42.76;101017.41;701673;28;37869;-60
2021/06/18 01:48:50;;;;;;;8.43;7.63;;;;;;;25.57;42.71;101014.38;700779;28;67492;-59
2021/06/18 01:49:12;;;;;;;8.50;7.70;;;;;;;25.56;43.01;101021.00;697600;28;115127;-60
2021/06/18 01:49:36;;;;;;;8.40;7.60;;;;;;;25.54;42.83;101019.31;699664;28;67108;-61
2021/06/18 01:49:59;;;;;;;11.02;7.50;;;;;;;25.56;42.64;101023.75;700204;28;70741;-61
2021/06/18 01:50:22;;;;;;;9.05;7.72;;;;;;;25.53;42.75;101017.69;700266;28;70368;-62
2021/06/18 01:50:44;;;;;;;8.52;7.60;;;;;;;25.52;43.05;101017.94;698888;28;92190;-59